createdAt,value
2022-12-05T00:01:18.201Z,2.48
2022-12-05T00:03:45.232Z,2.48
2022-12-05T00:06:11.667Z,2.50
2022-12-05T00:08:38.227Z,2.51
2022-12-05T00:11:04.828Z,2.53
2022-12-05T00:13:31.236Z,2.52
2022-12-05T00:15:57.596Z,2.50
2022-12-05T00:18:23.955Z,2.51
2022-12-05T00:20:50.354Z,2.51
2022-12-05T00:23:16.718Z,2.52
2022-12-05T00:25:43.093Z,2.52
2022-12-05T00:28:09.458Z,2.54
2022-12-05T00:30:35.828Z,2.53
2022-12-05T00:33:02.392Z,2.55
2022-12-05T00:35:28.754Z,2.56
2022-12-05T00:37:55.128Z,2.56
2022-12-05T00:40:21.502Z,2.56
2022-12-05T00:42:52.091Z,2.58
2022-12-05T00:45:18.903Z,2.57
2022-12-05T00:47:45.325Z,2.58
2022-12-05T00:50:11.827Z,2.57
2022-12-05T00:52:38.194Z,2.56
2022-12-05T00:55:04.997Z,2.56
2022-12-05T00:57:32.117Z,2.58
2022-12-05T00:59:58.881Z,2.56
2022-12-05T01:02:25.414Z,2.56
2022-12-05T01:04:51.767Z,2.55
2022-12-05T01:07:18.106Z,2.55
2022-12-05T01:09:44.469Z,2.55
2022-12-05T01:12:10.880Z,2.55
2022-12-05T01:14:37.338Z,2.55
2022-12-05T01:17:03.925Z,2.54
2022-12-05T01:19:32.145Z,2.54
2022-12-05T01:21:59.222Z,2.52
2022-12-05T01:24:26.871Z,2.51
2022-12-05T01:26:53.470Z,2.51
2022-12-05T01:29:21.962Z,2.50
2022-12-05T01:31:49.177Z,2.50
2022-12-05T01:34:17.662Z,2.51
2022-12-05T01:36:44.741Z,2.52
2022-12-05T01:39:12.404Z,2.52
2022-12-05T01:41:41.799Z,2.52
2022-12-05T01:44:28.112Z,2.52
2022-12-05T01:46:55.966Z,2.53
2022-12-05T01:49:35.078Z,2.54
2022-12-05T01:52:10.380Z,2.54
2022-12-05T01:54:38.012Z,2.54
2022-12-05T01:57:08.426Z,2.53
2022-12-05T01:59:39.730Z,2.53
2022-12-05T02:02:07.998Z,2.53
2022-12-05T02:04:41.983Z,2.55
2022-12-05T02:07:08.384Z,2.55
2022-12-05T02:09:36.486Z,2.54
2022-12-05T02:12:03.556Z,2.54
2022-12-05T02:14:52.725Z,2.56
2022-12-05T02:17:28.136Z,2.55
2022-12-05T02:20:13.727Z,2.56
2022-12-05T02:23:14.690Z,2.57
2022-12-05T02:26:13.554Z,2.59
2022-12-05T02:28:57.782Z,2.61
2022-12-05T02:31:37.177Z,2.61
2022-12-05T02:34:52.889Z,2.62
2022-12-05T02:37:51.170Z,2.64
2022-12-05T02:40:26.124Z,2.66
2022-12-05T02:43:11.180Z,2.68
2022-12-05T02:45:40.737Z,2.70
2022-12-05T02:48:08.978Z,2.71
2022-12-05T02:50:39.360Z,2.73
2022-12-05T02:53:12.433Z,2.74
2022-12-05T02:55:41.426Z,2.75
2022-12-05T02:58:15.703Z,2.77
2022-12-05T03:00:45.070Z,2.79
2022-12-05T03:03:15.299Z,2.80
2022-12-05T03:05:59.993Z,2.82
2022-12-05T03:08:32.473Z,2.84
2022-12-05T03:11:02.354Z,2.84
2022-12-05T03:13:36.325Z,2.86
2022-12-05T03:16:12.567Z,2.87
2022-12-05T03:18:45.384Z,2.89
2022-12-05T03:21:27.227Z,2.89
2022-12-05T03:23:58.155Z,2.90
2022-12-05T03:27:06.100Z,2.91
2022-12-05T03:30:05.289Z,2.91
2022-12-05T03:33:02.538Z,2.93
2022-12-05T03:35:50.540Z,2.93
2022-12-05T03:38:21.332Z,2.93
2022-12-05T03:40:52.758Z,2.96
2022-12-05T03:43:26.097Z,2.96
2022-12-05T03:45:55.460Z,2.96
2022-12-05T03:48:34.470Z,2.97
2022-12-05T03:51:03.723Z,2.99
2022-12-05T03:53:42.028Z,2.99
2022-12-05T03:56:17.896Z,3.01
2022-12-05T03:58:51.453Z,3.01
2022-12-05T04:01:22.441Z,3.01
2022-12-05T04:03:53.410Z,3.03
2022-12-05T04:06:33.530Z,3.03
2022-12-05T04:09:12.453Z,3.05
2022-12-05T04:11:47.426Z,3.04
2022-12-05T04:14:20.082Z,3.05
2022-12-05T04:17:06.085Z,3.05
2022-12-05T04:20:08.662Z,3.06
2022-12-05T04:22:36.663Z,3.06
2022-12-05T04:25:23.833Z,3.06
2022-12-05T04:28:23.913Z,3.04
2022-12-05T04:31:12.602Z,3.04
2022-12-05T04:33:44.173Z,3.03
2022-12-05T04:36:13.446Z,3.04
2022-12-05T04:38:48.512Z,3.04
2022-12-05T04:41:21.576Z,3.04
2022-12-05T04:43:51.047Z,3.04
2022-12-05T04:46:19.995Z,3.05
2022-12-05T04:48:52.707Z,3.05
2022-12-05T04:51:24.019Z,3.05
2022-12-05T04:53:55.823Z,3.06
2022-12-05T04:56:26.574Z,3.07
2022-12-05T04:58:53.307Z,3.07
2022-12-05T05:01:34.100Z,3.10
2022-12-05T05:04:11.932Z,3.11
2022-12-05T05:06:40.010Z,3.11
2022-12-05T05:09:06.521Z,3.13
2022-12-05T05:11:35.027Z,3.14
2022-12-05T05:14:02.264Z,3.15
2022-12-05T05:16:35.228Z,3.16
2022-12-05T05:19:01.915Z,3.18
2022-12-05T05:21:34.605Z,3.20
2022-12-05T05:24:01.396Z,3.22
2022-12-05T05:26:29.859Z,3.24
2022-12-05T05:28:59.337Z,3.26
2022-12-05T05:31:25.943Z,3.25
2022-12-05T05:33:54.473Z,3.27
2022-12-05T05:36:23.071Z,3.28
2022-12-05T05:38:52.215Z,3.31
2022-12-05T05:41:25.002Z,3.34
2022-12-05T05:43:52.469Z,3.34
2022-12-05T05:46:22.175Z,3.36
2022-12-05T05:48:49.237Z,3.38
2022-12-05T05:51:17.407Z,3.39
2022-12-05T05:53:44.165Z,3.41
2022-12-05T05:56:15.959Z,3.42
2022-12-05T05:58:47.029Z,3.44
2022-12-05T06:01:20.223Z,3.48
2022-12-05T06:03:47.222Z,3.51
2022-12-05T06:06:15.461Z,3.51
2022-12-05T06:08:43.463Z,3.51
2022-12-05T06:11:12.592Z,3.53
2022-12-05T06:13:39.405Z,3.55
2022-12-05T06:16:07.791Z,3.56
2022-12-05T06:18:34.835Z,3.58
2022-12-05T06:21:01.599Z,3.61
2022-12-05T06:23:28.573Z,3.63
2022-12-05T06:25:56.643Z,3.64
2022-12-05T06:28:25.269Z,3.65
2022-12-05T06:30:52.311Z,3.67
2022-12-05T06:33:19.031Z,3.70
2022-12-05T06:35:46.338Z,3.71
2022-12-05T06:38:13.024Z,3.73
2022-12-05T06:40:43.871Z,3.74
2022-12-05T06:43:11.359Z,3.75
2022-12-05T06:45:38.688Z,3.79
2022-12-05T06:48:05.842Z,3.78
2022-12-05T06:50:32.271Z,3.79
2022-12-05T06:52:58.674Z,3.82
2022-12-05T06:55:25.055Z,3.82
2022-12-05T06:57:51.434Z,3.84
2022-12-05T07:00:36.504Z,3.86
2022-12-05T07:03:02.893Z,3.88
2022-12-05T07:05:29.383Z,3.89
2022-12-05T07:07:55.858Z,3.91
2022-12-05T07:10:22.276Z,3.91
2022-12-05T07:12:48.654Z,3.91
2022-12-05T07:15:15.027Z,3.93
2022-12-05T07:17:41.393Z,3.93
2022-12-05T07:20:10.385Z,3.93
2022-12-05T07:22:37.305Z,3.94
2022-12-05T07:25:04.294Z,3.94
2022-12-05T07:27:30.865Z,3.96
2022-12-05T07:29:57.649Z,3.96
2022-12-05T07:32:24.267Z,3.99
2022-12-05T07:34:54.992Z,3.99
2022-12-05T07:37:22.093Z,3.99
2022-12-05T07:39:48.527Z,4.00
2022-12-05T07:42:14.870Z,4.01
2022-12-05T07:44:41.230Z,4.02
2022-12-05T07:47:07.578Z,4.03
2022-12-05T07:49:33.969Z,4.05
2022-12-05T07:52:00.303Z,4.06
2022-12-05T07:54:27.244Z,4.07
2022-12-05T07:56:53.578Z,4.07
2022-12-05T07:59:20.144Z,4.07
2022-12-05T08:01:46.612Z,4.08
2022-12-05T08:04:15.608Z,4.09
2022-12-05T08:06:42.821Z,4.11
2022-12-05T08:09:09.230Z,4.12
2022-12-05T08:11:36.121Z,4.12
2022-12-05T08:14:04.563Z,4.14
2022-12-05T08:16:32.218Z,4.14
2022-12-05T08:19:04.148Z,4.16
2022-12-05T08:21:31.122Z,4.17
2022-12-05T08:23:58.331Z,4.17
2022-12-05T08:26:30.563Z,4.17
2022-12-05T08:29:00.414Z,4.20
2022-12-05T08:31:31.228Z,4.22
2022-12-05T08:33:59.705Z,4.22
2022-12-05T08:36:28.196Z,4.25
2022-12-05T08:39:00.620Z,4.24
2022-12-05T08:41:29.840Z,4.26
2022-12-05T08:43:57.829Z,4.29
2022-12-05T08:46:24.477Z,4.30
2022-12-05T08:48:51.556Z,4.32
2022-12-05T08:51:17.921Z,4.33
2022-12-05T08:53:44.987Z,4.33
2022-12-05T08:56:12.483Z,4.36
2022-12-05T08:58:39.728Z,4.36
2022-12-05T09:01:14.675Z,4.38
2022-12-05T09:03:47.534Z,4.40
2022-12-05T09:06:19.499Z,4.42
2022-12-05T09:08:46.866Z,4.45
2022-12-05T09:11:18.881Z,4.44
2022-12-05T09:13:46.285Z,4.45
2022-12-05T09:16:24.493Z,4.47
2022-12-05T09:18:51.757Z,4.50
2022-12-05T09:21:23.894Z,4.50
2022-12-05T09:23:51.075Z,4.53
2022-12-05T09:26:20.836Z,4.52
2022-12-05T09:28:47.521Z,4.54
2022-12-05T09:31:17.399Z,4.57
2022-12-05T09:33:44.426Z,4.58
2022-12-05T09:36:15.698Z,4.59
2022-12-05T09:38:42.762Z,4.61
2022-12-05T09:41:21.707Z,4.60
2022-12-05T09:44:05.817Z,4.62
2022-12-05T09:46:49.197Z,4.63
2022-12-05T09:49:15.843Z,4.63
2022-12-05T09:51:49.563Z,4.65
2022-12-05T09:54:19.294Z,4.66
2022-12-05T09:56:49.799Z,4.65
2022-12-05T09:59:17.035Z,4.67
2022-12-05T10:01:52.776Z,4.66
2022-12-05T10:04:31.692Z,4.66
2022-12-05T10:07:19.648Z,4.69
2022-12-05T10:10:20.478Z,4.71
2022-12-05T10:13:05.976Z,4.71
2022-12-05T10:15:38.056Z,4.72
2022-12-05T10:18:25.779Z,4.73
2022-12-05T10:21:44.739Z,4.76
2022-12-05T10:24:17.198Z,4.75
2022-12-05T10:26:46.651Z,4.76
2022-12-05T10:29:27.821Z,4.78
2022-12-05T10:32:03.233Z,4.78
2022-12-05T10:34:34.467Z,4.81
2022-12-05T10:37:19.769Z,4.81
2022-12-05T10:39:50.713Z,4.84
2022-12-05T10:42:25.885Z,4.85
2022-12-05T10:44:57.787Z,4.84
2022-12-05T10:47:24.825Z,4.82
2022-12-05T10:49:52.537Z,4.84
2022-12-05T10:52:19.249Z,4.84
2022-12-05T10:54:57.479Z,4.84
2022-12-05T10:57:28.179Z,4.83
2022-12-05T10:59:56.319Z,4.81
2022-12-05T11:02:28.915Z,4.81
2022-12-05T11:04:56.293Z,4.81
2022-12-05T11:07:27.632Z,4.80
2022-12-05T11:09:54.210Z,4.79
2022-12-05T11:12:20.611Z,4.78
2022-12-05T11:14:59.154Z,4.77
2022-12-05T11:17:39.092Z,4.79
2022-12-05T11:20:17.806Z,4.78
2022-12-05T11:22:50.270Z,4.81
2022-12-05T11:25:31.269Z,4.84
2022-12-05T11:28:01.617Z,4.85
2022-12-05T11:30:29.558Z,4.84
2022-12-05T11:33:12.261Z,4.84
2022-12-05T11:35:39.699Z,4.87
2022-12-05T11:38:06.657Z,4.87
2022-12-05T11:40:53.000Z,4.86
2022-12-05T11:43:42.754Z,4.87
2022-12-05T11:46:26.890Z,4.88
2022-12-05T11:48:56.554Z,4.89
2022-12-05T11:51:55.699Z,4.89
2022-12-05T11:55:03.972Z,4.90
2022-12-05T11:57:57.383Z,4.87
2022-12-05T12:00:50.615Z,4.88
2022-12-05T12:04:11.165Z,4.89
2022-12-05T12:07:18.802Z,4.89
2022-12-05T12:09:48.104Z,4.89
2022-12-05T12:12:49.115Z,4.88
2022-12-05T12:15:23.796Z,4.93
2022-12-05T12:18:02.395Z,4.93
2022-12-05T12:20:51.248Z,4.90
2022-12-05T12:23:45.487Z,4.91
2022-12-05T12:26:15.898Z,4.91
2022-12-05T12:28:49.485Z,4.95
2022-12-05T12:31:35.148Z,4.97
2022-12-05T12:34:41.905Z,4.92
2022-12-05T12:37:18.781Z,4.91
2022-12-05T12:39:45.087Z,4.86
2022-12-05T12:42:20.714Z,4.85
2022-12-05T12:45:15.617Z,4.83
2022-12-05T12:48:00.905Z,4.84
2022-12-05T12:50:32.216Z,4.83
2022-12-05T12:53:13.926Z,4.85
2022-12-05T12:55:47.437Z,4.85
2022-12-05T12:58:31.746Z,4.84
2022-12-05T13:01:11.068Z,4.85
2022-12-05T13:03:54.289Z,4.86
2022-12-05T13:06:40.390Z,4.86
2022-12-05T13:09:17.653Z,4.84
2022-12-05T13:11:46.839Z,4.83
2022-12-05T13:14:17.502Z,4.86
2022-12-05T13:16:50.203Z,4.84
2022-12-05T13:19:30.000Z,4.83
2022-12-05T13:21:58.282Z,4.81
2022-12-05T13:24:28.885Z,4.79
2022-12-05T13:27:00.470Z,4.80
2022-12-05T13:29:42.804Z,4.76
2022-12-05T13:32:35.106Z,4.72
2022-12-05T13:35:07.727Z,4.69
2022-12-05T13:37:53.789Z,4.69
2022-12-05T13:40:48.168Z,4.68
2022-12-05T13:43:27.313Z,4.66
2022-12-05T13:46:07.013Z,4.66
2022-12-05T13:48:40.520Z,4.66
2022-12-05T13:51:12.463Z,4.66
2022-12-05T13:53:42.705Z,4.65
2022-12-05T13:56:12.112Z,4.67
2022-12-05T13:58:51.586Z,4.66
2022-12-05T14:01:27.596Z,4.66
2022-12-05T14:03:58.354Z,4.64
2022-12-05T14:06:39.912Z,4.65
2022-12-05T14:09:18.818Z,4.65
2022-12-05T14:12:20.386Z,4.65
2022-12-05T14:14:55.779Z,4.64
2022-12-05T14:17:30.971Z,4.65
2022-12-05T14:20:00.535Z,4.63
2022-12-05T14:22:44.367Z,4.64
2022-12-05T14:25:27.747Z,4.65
2022-12-05T14:28:28.471Z,4.65
2022-12-05T14:31:14.809Z,4.65
2022-12-05T14:33:41.471Z,4.66
2022-12-05T14:36:16.464Z,4.66
2022-12-05T14:38:44.231Z,4.66
2022-12-05T14:41:22.269Z,4.68
2022-12-05T14:43:54.510Z,4.66
2022-12-05T14:46:27.469Z,4.66
2022-12-05T14:48:55.954Z,4.67
2022-12-05T14:51:31.430Z,4.68
2022-12-05T14:54:12.161Z,4.66
2022-12-05T14:56:43.895Z,4.67
2022-12-05T14:59:27.897Z,4.66
2022-12-05T15:02:00.820Z,4.66
2022-12-05T15:04:50.808Z,4.66
2022-12-05T15:07:21.124Z,4.65
2022-12-05T15:10:02.880Z,4.66
2022-12-05T15:12:32.915Z,4.66
2022-12-05T15:15:08.044Z,4.65
2022-12-05T15:17:43.242Z,4.65
2022-12-05T15:20:38.868Z,4.65
2022-12-05T15:23:42.994Z,4.64
2022-12-05T15:26:49.381Z,4.63
2022-12-05T15:29:25.534Z,4.65
2022-12-05T15:31:57.024Z,4.65
2022-12-05T15:34:45.582Z,4.64
2022-12-05T15:37:49.710Z,4.64
2022-12-05T15:40:21.825Z,4.63
2022-12-05T15:42:51.180Z,4.63
2022-12-05T15:45:26.988Z,4.62
2022-12-05T15:48:11.849Z,4.63
2022-12-05T15:50:49.482Z,4.63
2022-12-05T15:53:41.348Z,4.64
2022-12-05T15:56:22.642Z,4.63
2022-12-05T15:58:58.591Z,4.62
2022-12-05T16:01:27.643Z,4.63
2022-12-05T16:04:02.148Z,4.63
2022-12-05T16:06:37.144Z,4.64
2022-12-05T16:09:11.773Z,4.63
2022-12-05T16:11:38.566Z,4.63
2022-12-05T16:14:07.941Z,4.63
2022-12-05T16:16:38.923Z,4.63
2022-12-05T16:19:17.191Z,4.62
2022-12-05T16:21:59.824Z,4.63
2022-12-05T16:24:32.380Z,4.63
2022-12-05T16:27:02.792Z,4.63
2022-12-05T16:29:31.727Z,4.62
2022-12-05T16:32:00.593Z,4.63
2022-12-05T16:34:28.964Z,4.64
2022-12-05T16:36:56.833Z,4.66
2022-12-05T16:39:25.635Z,4.67
2022-12-05T16:41:52.505Z,4.68
2022-12-05T16:44:31.764Z,4.68
2022-12-05T16:46:58.362Z,4.69
2022-12-05T16:49:30.757Z,4.69
2022-12-05T16:52:09.163Z,4.70
2022-12-05T16:54:35.682Z,4.71
2022-12-05T16:57:03.599Z,4.71
2022-12-05T16:59:37.719Z,4.72
2022-12-05T17:02:07.685Z,4.71
2022-12-05T17:04:34.139Z,4.70
2022-12-05T17:07:00.650Z,4.72
2022-12-05T17:09:27.262Z,4.72
2022-12-05T17:12:02.841Z,4.72
2022-12-05T17:14:29.196Z,4.73
2022-12-05T17:16:55.589Z,4.73
2022-12-05T17:19:22.058Z,4.75
2022-12-05T17:21:48.648Z,4.74
2022-12-05T17:24:17.425Z,4.74
2022-12-05T17:26:44.861Z,4.74
2022-12-05T17:29:11.547Z,4.75
2022-12-05T17:31:38.130Z,4.75
2022-12-05T17:34:13.663Z,4.74
2022-12-05T17:36:40.055Z,4.73
2022-12-05T17:39:06.473Z,4.73
2022-12-05T17:41:32.822Z,4.72
2022-12-05T17:43:59.274Z,4.74
2022-12-05T17:46:25.753Z,4.74
2022-12-05T17:48:52.533Z,4.74
2022-12-05T17:51:19.973Z,4.74
2022-12-05T17:53:47.350Z,4.73
2022-12-05T17:56:16.330Z,4.77
2022-12-05T17:58:42.829Z,4.78
2022-12-05T18:01:17.517Z,4.80
2022-12-05T18:03:44.048Z,4.79
2022-12-05T18:06:10.616Z,4.78
2022-12-05T18:08:39.767Z,4.78
2022-12-05T18:11:06.750Z,4.78
2022-12-05T18:13:33.964Z,4.78
2022-12-05T18:16:01.837Z,4.80
2022-12-05T18:18:29.449Z,4.83
2022-12-05T18:21:06.138Z,4.82
2022-12-05T18:23:32.718Z,4.82
2022-12-05T18:26:00.058Z,4.81
2022-12-05T18:28:26.888Z,4.81
2022-12-05T18:31:10.304Z,4.81
2022-12-05T18:33:36.894Z,4.80
2022-12-05T18:36:15.639Z,4.83
2022-12-05T18:38:45.509Z,4.82
2022-12-05T18:41:11.884Z,4.84
2022-12-05T18:43:39.986Z,4.84
2022-12-05T18:46:06.499Z,4.82
2022-12-05T18:48:40.132Z,4.82
2022-12-05T18:51:21.168Z,4.82
2022-12-05T18:53:53.208Z,4.81
2022-12-05T18:56:26.430Z,4.81
2022-12-05T18:59:02.429Z,4.81
2022-12-05T19:01:30.664Z,4.78
2022-12-05T19:03:58.013Z,4.78
2022-12-05T19:06:26.909Z,4.77
2022-12-05T19:08:59.131Z,4.76
2022-12-05T19:11:26.356Z,4.74
2022-12-05T19:14:01.783Z,4.76
2022-12-05T19:16:30.235Z,4.76
2022-12-05T19:18:59.473Z,4.73
2022-12-05T19:21:28.006Z,4.75
2022-12-05T19:23:55.293Z,4.75
2022-12-05T19:26:22.463Z,4.76
2022-12-05T19:28:49.183Z,4.74
2022-12-05T19:31:20.035Z,4.74
2022-12-05T19:33:49.118Z,4.76
2022-12-05T19:36:19.464Z,4.75
2022-12-05T19:38:47.685Z,4.72
2022-12-05T19:41:16.555Z,4.74
2022-12-05T19:43:44.729Z,4.74
2022-12-05T19:46:13.959Z,4.73
2022-12-05T19:48:40.557Z,4.73
2022-12-05T19:51:07.123Z,4.74
2022-12-05T19:53:36.251Z,4.75
2022-12-05T19:56:05.287Z,4.74
2022-12-05T19:58:33.052Z,4.73
2022-12-05T20:01:12.478Z,4.73
2022-12-05T20:03:39.693Z,4.71
2022-12-05T20:06:07.336Z,4.72
2022-12-05T20:08:35.293Z,4.72
2022-12-05T20:11:09.955Z,4.73
2022-12-05T20:13:46.437Z,4.72
2022-12-05T20:16:15.769Z,4.74
2022-12-05T20:18:42.409Z,4.75
2022-12-05T20:21:11.159Z,4.75
2022-12-05T20:23:37.639Z,4.76
2022-12-05T20:26:05.383Z,4.76
2022-12-05T20:28:32.455Z,4.76
2022-12-05T20:31:10.221Z,4.75
2022-12-05T20:33:37.424Z,4.76
2022-12-05T20:36:12.622Z,4.78
2022-12-05T20:38:39.362Z,4.78
2022-12-05T20:41:08.769Z,4.79
2022-12-05T20:43:35.652Z,4.77
2022-12-05T20:46:07.745Z,4.76
2022-12-05T20:48:35.254Z,4.76
2022-12-05T20:51:07.047Z,4.76
2022-12-05T20:53:35.816Z,4.77
2022-12-05T20:56:04.186Z,4.77
2022-12-05T20:58:30.548Z,4.77
2022-12-05T21:00:58.673Z,4.76
2022-12-05T21:03:25.093Z,4.79
2022-12-05T21:05:51.510Z,4.79
2022-12-05T21:08:18.447Z,4.78
2022-12-05T21:10:52.566Z,4.79
2022-12-05T21:13:20.564Z,4.78
2022-12-05T21:15:47.021Z,4.78
2022-12-05T21:18:13.514Z,4.79
2022-12-05T21:20:42.246Z,4.78
2022-12-05T21:23:09.122Z,4.80
2022-12-05T21:25:36.373Z,4.79
2022-12-05T21:28:02.762Z,4.79
2022-12-05T21:30:29.196Z,4.76
2022-12-05T21:32:55.769Z,4.75
2022-12-05T21:35:23.334Z,4.76
2022-12-05T21:37:49.710Z,4.80
2022-12-05T21:43:43.277Z,4.81
2022-12-05T21:46:09.712Z,4.80
2022-12-05T21:48:36.417Z,4.80
2022-12-05T21:51:07.424Z,4.82
2022-12-05T21:53:34.892Z,4.81
2022-12-05T21:56:08.514Z,4.82
2022-12-05T21:58:39.311Z,4.82
2022-12-05T22:01:08.928Z,4.81
2022-12-05T22:03:35.416Z,4.83
2022-12-05T22:06:03.563Z,4.82
2022-12-05T22:08:31.127Z,4.83
2022-12-05T22:11:04.575Z,4.84
2022-12-05T22:13:32.318Z,4.84
2022-12-05T22:15:58.936Z,4.85
2022-12-05T22:18:26.045Z,4.84
2022-12-05T22:21:01.068Z,4.84
2022-12-05T22:23:27.888Z,4.83
2022-12-05T22:26:09.020Z,4.83
2022-12-05T22:28:36.978Z,4.84
2022-12-05T22:31:06.375Z,4.83
2022-12-05T22:33:35.375Z,4.84
2022-12-05T22:36:02.597Z,4.82
2022-12-05T22:38:33.041Z,4.81
2022-12-05T22:41:02.209Z,4.82
2022-12-05T22:43:31.592Z,4.82
2022-12-05T22:45:57.998Z,4.82
2022-12-05T22:48:24.375Z,4.81
2022-12-05T22:50:52.967Z,4.81
2022-12-05T22:53:21.568Z,4.81
2022-12-05T22:55:48.618Z,4.81
2022-12-05T22:58:15.359Z,4.81
2022-12-05T23:00:42.156Z,4.81
2022-12-05T23:03:08.953Z,4.81
2022-12-05T23:05:39.981Z,4.81
2022-12-05T23:08:06.811Z,4.82
2022-12-05T23:10:33.501Z,4.84
2022-12-05T23:13:00.166Z,4.83
2022-12-05T23:15:26.568Z,4.84
2022-12-05T23:17:53.228Z,4.84
2022-12-05T23:20:19.626Z,4.85
2022-12-05T23:22:46.713Z,4.84
2022-12-05T23:25:13.127Z,4.83
2022-12-05T23:27:39.508Z,4.83
2022-12-05T23:30:06.526Z,4.83
2022-12-05T23:32:33.071Z,4.81
2022-12-05T23:34:59.487Z,4.83
2022-12-05T23:37:25.916Z,4.83
2022-12-05T23:39:52.310Z,4.84
2022-12-05T23:42:18.711Z,4.85
2022-12-05T23:44:45.169Z,4.84
2022-12-05T23:47:11.596Z,4.86
2022-12-05T23:49:38.050Z,4.84
2022-12-05T23:52:04.638Z,4.85
2022-12-05T23:54:31.058Z,4.86
2022-12-05T23:56:57.468Z,4.86
2022-12-05T23:59:23.951Z,4.87
